createdAt,value
2022-11-24T00:01:16.694Z,100342.72
2022-11-24T00:03:51.918Z,100345.56
2022-11-24T00:06:18.589Z,100351.88
2022-11-24T00:08:46.224Z,100349.25
2022-11-24T00:11:16.054Z,100355.91
2022-11-24T00:13:43.499Z,100356.75
2022-11-24T00:16:19.181Z,100359.13
2022-11-24T00:18:48.016Z,100363.44
2022-11-24T00:21:16.554Z,100367.59
2022-11-24T00:23:43.500Z,100364.09
2022-11-24T00:26:09.945Z,100373.13
2022-11-24T00:28:37.562Z,100382.78
2022-11-24T00:31:05.975Z,100387.88
2022-11-24T00:33:32.596Z,100378.38
2022-11-24T00:36:00.598Z,100382.41
2022-11-24T00:38:27.163Z,100382.59
2022-11-24T00:40:53.742Z,100383.44
2022-11-24T00:43:20.400Z,100390.72
2022-11-24T00:45:47.105Z,100382.44
2022-11-24T00:48:13.997Z,100394.69
2022-11-24T00:50:40.562Z,100392.91
2022-11-24T00:53:07.034Z,100395.00
2022-11-24T00:55:33.666Z,100396.78
2022-11-24T00:58:00.296Z,100405.44
2022-11-24T01:00:26.964Z,100417.16
2022-11-24T01:02:53.651Z,100403.84
2022-11-24T01:05:20.519Z,100409.78
2022-11-24T01:07:47.514Z,100412.53
2022-11-24T01:10:14.291Z,100418.84
2022-11-24T01:12:40.869Z,100411.31
2022-11-24T01:15:07.840Z,100416.69
2022-11-24T01:17:34.482Z,100410.75
2022-11-24T01:20:00.950Z,100415.84
2022-11-24T01:22:27.456Z,100419.31
2022-11-24T01:24:53.964Z,100415.75
2022-11-24T01:27:20.540Z,100417.34
2022-11-24T01:29:47.002Z,100420.91
2022-11-24T01:32:13.498Z,100417.72
2022-11-24T01:34:39.972Z,100419.53
2022-11-24T01:37:06.424Z,100427.06
2022-11-24T01:39:32.952Z,100423.97
2022-11-24T01:42:02.511Z,100426.31
2022-11-24T01:44:31.249Z,100418.69
2022-11-24T01:47:02.516Z,100428.53
2022-11-24T01:49:53.406Z,100431.88
2022-11-24T01:52:26.884Z,100438.94
2022-11-24T01:54:56.307Z,100434.66
2022-11-24T01:57:27.232Z,100438.63
2022-11-24T01:59:59.923Z,100437.88
2022-11-24T02:02:29.744Z,100448.06
2022-11-24T02:05:05.598Z,100451.44
2022-11-24T02:07:33.155Z,100439.56
2022-11-24T02:10:04.736Z,100452.75
2022-11-24T02:12:31.932Z,100459.06
2022-11-24T02:14:59.309Z,100458.13
2022-11-24T02:17:25.893Z,100463.03
2022-11-24T02:20:01.046Z,100468.78
2022-11-24T02:22:45.839Z,100472.53
2022-11-24T02:25:31.143Z,100475.38
2022-11-24T02:28:00.095Z,100478.75
2022-11-24T02:30:26.875Z,100481.13
2022-11-24T02:32:53.901Z,100488.19
2022-11-24T02:35:20.506Z,100482.34
2022-11-24T02:37:47.011Z,100488.75
2022-11-24T02:40:20.651Z,100488.47
2022-11-24T02:42:47.576Z,100488.47
2022-11-24T02:45:16.344Z,100493.81
2022-11-24T02:47:43.150Z,100489.50
2022-11-24T02:50:09.893Z,100499.59
2022-11-24T02:52:38.621Z,100501.00
2022-11-24T02:55:05.627Z,100497.22
2022-11-24T02:57:32.445Z,100501.00
2022-11-24T02:59:59.082Z,100505.06
2022-11-24T03:02:25.657Z,100509.75
2022-11-24T03:04:52.242Z,100507.97
2022-11-24T03:07:19.178Z,100510.53
2022-11-24T03:09:45.707Z,100511.47
2022-11-24T03:12:12.210Z,100515.78
2022-11-24T03:14:38.718Z,100513.16
2022-11-24T03:17:05.378Z,100509.56
2022-11-24T03:19:31.967Z,100506.38
2022-11-24T03:21:58.946Z,100504.66
2022-11-24T03:24:25.601Z,100507.50
2022-11-24T03:26:52.182Z,100506.47
2022-11-24T03:29:18.727Z,100512.78
2022-11-24T03:31:45.395Z,100509.47
2022-11-24T03:34:11.940Z,100512.00
2022-11-24T03:36:38.442Z,100514.75
2022-11-24T03:39:05.733Z,100509.00
2022-11-24T03:41:32.225Z,100515.59
2022-11-24T03:43:58.863Z,100512.00
2022-11-24T03:46:25.432Z,100511.34
2022-11-24T03:48:52.015Z,100518.22
2022-11-24T03:51:18.543Z,100521.22
2022-11-24T03:53:45.074Z,100533.84
2022-11-24T03:56:11.644Z,100530.09
2022-11-24T03:58:38.139Z,100523.47
2022-11-24T04:01:04.686Z,100536.22
2022-11-24T04:03:31.267Z,100541.56
2022-11-24T04:05:57.767Z,100542.25
2022-11-24T04:08:24.303Z,100559.84
2022-11-24T04:10:54.542Z,100559.00
2022-11-24T04:13:23.473Z,100574.84
2022-11-24T04:15:50.697Z,100577.47
2022-11-24T04:18:17.259Z,100580.88
2022-11-24T04:20:44.221Z,100585.09
2022-11-24T04:23:11.757Z,100580.03
2022-11-24T04:25:38.551Z,100572.69
2022-11-24T04:28:05.026Z,100574.44
2022-11-24T04:30:31.890Z,100579.47
2022-11-24T04:32:58.463Z,100581.53
2022-11-24T04:35:25.036Z,100603.03
2022-11-24T04:37:53.084Z,100587.47
2022-11-24T04:40:20.246Z,100600.56
2022-11-24T04:42:54.831Z,100614.88
2022-11-24T04:45:22.402Z,100603.88
2022-11-24T04:47:48.830Z,100610.47
2022-11-24T04:50:15.746Z,100614.41
2022-11-24T04:52:43.243Z,100617.44
2022-11-24T04:55:10.303Z,100614.41
2022-11-24T04:57:37.150Z,100621.19
2022-11-24T05:00:04.136Z,100619.31
2022-11-24T05:02:30.737Z,100629.94
2022-11-24T05:04:57.207Z,100630.44
2022-11-24T05:07:23.719Z,100623.66
2022-11-24T05:10:08.805Z,100633.75
2022-11-24T05:12:35.255Z,100633.16
2022-11-24T05:15:05.759Z,100651.38
2022-11-24T05:17:34.654Z,100653.81
2022-11-24T05:20:01.410Z,100661.25
2022-11-24T05:22:31.739Z,100672.16
2022-11-24T05:24:58.279Z,100674.03
2022-11-24T05:27:25.192Z,100685.25
2022-11-24T05:29:55.628Z,100680.16
2022-11-24T05:32:23.812Z,100685.16
2022-11-24T05:34:50.645Z,100690.72
2022-11-24T05:37:18.666Z,100673.53
2022-11-24T05:39:45.834Z,100702.03
2022-11-24T05:42:31.574Z,100711.31
2022-11-24T05:45:00.492Z,100703.47
2022-11-24T05:47:28.591Z,100710.97
2022-11-24T05:49:55.391Z,100713.94
2022-11-24T05:52:22.366Z,100720.59
2022-11-24T05:54:51.227Z,100719.47
2022-11-24T05:57:18.258Z,100724.16
2022-11-24T05:59:45.706Z,100733.94
2022-11-24T06:02:12.565Z,100740.06
2022-11-24T06:04:44.543Z,100742.56
2022-11-24T06:07:13.165Z,100744.22
2022-11-24T06:09:41.364Z,100751.31
2022-11-24T06:12:08.600Z,100751.50
2022-11-24T06:14:35.531Z,100763.72
2022-11-24T06:17:02.257Z,100762.59
2022-11-24T06:19:28.813Z,100762.97
2022-11-24T06:21:55.294Z,100777.00
2022-11-24T06:24:21.731Z,100779.78
2022-11-24T06:26:48.174Z,100788.72
2022-11-24T06:29:14.761Z,100790.84
2022-11-24T06:31:44.148Z,100800.97
2022-11-24T06:34:12.133Z,100800.19
2022-11-24T06:36:39.376Z,100805.38
2022-11-24T06:39:06.652Z,100800.72
2022-11-24T06:41:34.665Z,100812.28
2022-11-24T06:44:03.770Z,100812.59
2022-11-24T06:46:30.247Z,100810.88
2022-11-24T06:48:56.769Z,100821.19
2022-11-24T06:51:23.248Z,100823.28
2022-11-24T06:53:49.659Z,100835.63
2022-11-24T06:56:19.613Z,100834.94
2022-11-24T06:58:48.808Z,100830.81
2022-11-24T07:01:23.378Z,100847.25
2022-11-24T07:03:51.346Z,100839.34
2022-11-24T07:06:19.797Z,100839.59
2022-11-24T07:08:46.769Z,100849.34
2022-11-24T07:11:15.912Z,100868.81
2022-11-24T07:13:43.129Z,100879.78
2022-11-24T07:16:24.729Z,100877.25
2022-11-24T07:18:53.048Z,100884.22
2022-11-24T07:21:21.412Z,100884.84
2022-11-24T07:23:49.640Z,100902.50
2022-11-24T07:26:16.488Z,100903.13
2022-11-24T07:28:42.985Z,100910.19
2022-11-24T07:31:14.728Z,100925.75
2022-11-24T07:33:41.692Z,100938.94
2022-11-24T07:36:09.000Z,100934.81
2022-11-24T07:38:36.153Z,100949.00
2022-11-24T07:41:10.382Z,100954.03
2022-11-24T07:43:40.305Z,100956.53
2022-11-24T07:46:10.931Z,100957.78
2022-11-24T07:48:37.493Z,100959.19
2022-11-24T07:51:05.632Z,100958.19
2022-11-24T07:53:33.395Z,100958.19
2022-11-24T07:56:02.366Z,100961.91
2022-11-24T07:58:32.937Z,100962.41
2022-11-24T08:00:59.997Z,100972.19
2022-11-24T08:03:26.581Z,100970.56
2022-11-24T08:06:22.370Z,100983.66
2022-11-24T08:08:41.494Z,100975.66
2022-11-24T08:11:10.663Z,100977.44
2022-11-24T08:13:37.613Z,100974.03
2022-11-24T08:16:18.770Z,100981.63
2022-11-24T08:18:51.193Z,100978.22
2022-11-24T08:21:17.783Z,100987.13
2022-11-24T08:23:44.325Z,100983.34
2022-11-24T08:26:17.784Z,100985.34
2022-11-24T08:28:45.860Z,100992.09
2022-11-24T08:31:15.212Z,100998.81
2022-11-24T08:33:42.661Z,101000.66
2022-11-24T08:36:14.320Z,101010.34
2022-11-24T08:38:41.120Z,101011.91
2022-11-24T08:41:10.878Z,101015.47
2022-11-24T08:43:37.619Z,101025.25
2022-11-24T08:46:17.083Z,101021.59
2022-11-24T08:48:47.483Z,101026.03
2022-11-24T08:51:16.274Z,101032.53
2022-11-24T08:53:43.711Z,101022.22
2022-11-24T08:56:11.648Z,101029.59
2022-11-24T08:58:39.238Z,101037.50
2022-11-24T09:01:11.331Z,101045.88
2022-11-24T09:03:42.197Z,101046.56
2022-11-24T09:06:11.372Z,101048.97
2022-11-24T09:08:38.530Z,101043.47
2022-11-24T09:11:07.907Z,101060.84
2022-11-24T09:13:34.791Z,101060.84
2022-11-24T09:16:09.027Z,101060.59
2022-11-24T09:18:36.029Z,101058.34
2022-11-24T09:21:10.157Z,101060.38
2022-11-24T09:23:37.177Z,101065.19
2022-11-24T09:26:09.544Z,101060.75
2022-11-24T09:28:36.262Z,101056.31
2022-11-24T09:31:04.654Z,101075.63
2022-11-24T09:33:32.248Z,101069.66
2022-11-24T09:35:59.050Z,101074.00
2022-11-24T09:38:25.795Z,101082.00
2022-11-24T09:40:56.019Z,101085.66
2022-11-24T09:43:30.426Z,101084.56
2022-11-24T09:46:11.786Z,101092.41
2022-11-24T09:48:42.377Z,101093.94
2022-11-24T09:51:14.873Z,101094.09
2022-11-24T09:53:47.133Z,101101.63
2022-11-24T09:56:21.903Z,101109.22
2022-11-24T09:58:54.234Z,101099.13
2022-11-24T10:01:26.151Z,101118.84
2022-11-24T10:03:53.914Z,101118.69
2022-11-24T10:06:45.283Z,101117.28
2022-11-24T10:09:45.631Z,101122.28
2022-11-24T10:12:36.618Z,101130.19
2022-11-24T10:15:30.107Z,101126.44
2022-11-24T10:18:02.866Z,101129.88
2022-11-24T10:21:02.656Z,101138.66
2022-11-24T10:24:20.656Z,101146.50
2022-11-24T10:27:11.577Z,101145.22
2022-11-24T10:29:40.898Z,101138.22
2022-11-24T10:32:33.508Z,101150.34
2022-11-24T10:35:14.465Z,101145.50
2022-11-24T10:37:47.184Z,101136.63
2022-11-24T10:40:55.377Z,101142.19
2022-11-24T10:43:11.513Z,101148.31
2022-11-24T10:45:40.002Z,101153.19
2022-11-24T10:48:18.224Z,101152.16
2022-11-24T10:50:45.149Z,101173.41
2022-11-24T10:53:21.229Z,101165.22
2022-11-24T10:55:58.192Z,101170.16
2022-11-24T10:58:37.974Z,101164.66
2022-11-24T11:01:14.259Z,101167.28
2022-11-24T11:03:56.222Z,101165.75
2022-11-24T11:06:24.627Z,101169.75
2022-11-24T11:09:17.704Z,101164.63
2022-11-24T11:11:50.215Z,101166.00
2022-11-24T11:14:31.651Z,101173.66
2022-11-24T11:16:58.463Z,101176.91
2022-11-24T11:19:48.954Z,101175.47
2022-11-24T11:22:26.699Z,101173.16
2022-11-24T11:25:36.142Z,101181.00
2022-11-24T11:28:29.517Z,101180.41
2022-11-24T11:31:22.491Z,101186.47
2022-11-24T11:34:06.342Z,101185.94
2022-11-24T11:36:46.231Z,101183.13
2022-11-24T11:39:37.218Z,101190.03
2022-11-24T11:45:28.688Z,101190.97
2022-11-24T11:47:58.986Z,101185.16
2022-11-24T11:51:14.964Z,101176.34
2022-11-24T11:53:52.310Z,101171.31
2022-11-24T11:56:25.109Z,101176.25
2022-11-24T11:59:27.107Z,101176.03
2022-11-24T12:02:35.457Z,101177.38
2022-11-24T12:05:11.818Z,101179.84
2022-11-24T12:07:56.941Z,101179.75
2022-11-24T12:10:27.409Z,101182.59
2022-11-24T12:13:12.153Z,101181.63
2022-11-24T12:15:49.785Z,101179.16
2022-11-24T12:18:58.197Z,101177.50
2022-11-24T12:21:36.280Z,101177.78
2022-11-24T12:24:18.844Z,101177.59
2022-11-24T12:26:49.205Z,101177.41
2022-11-24T12:29:34.174Z,101190.75
2022-11-24T12:32:22.439Z,101193.97
2022-11-24T12:35:17.873Z,101189.44
2022-11-24T12:37:53.385Z,101192.38
2022-11-24T12:40:28.656Z,101193.88
2022-11-24T12:43:16.884Z,101198.91
2022-11-24T12:45:51.418Z,101200.03
2022-11-24T12:48:49.488Z,101205.41
2022-11-24T12:51:18.991Z,101202.00
2022-11-24T12:53:48.112Z,101208.91
2022-11-24T12:56:17.364Z,101205.69
2022-11-24T12:59:00.480Z,101206.53
2022-11-24T13:01:46.419Z,101196.97
2022-11-24T13:04:39.260Z,101199.53
2022-11-24T13:07:12.031Z,101194.16
2022-11-24T13:09:58.490Z,101196.97
2022-11-24T13:12:25.059Z,101195.09
2022-11-24T13:14:51.574Z,101189.13
2022-11-24T13:17:38.266Z,101198.50
2022-11-24T13:20:19.370Z,101204.84
2022-11-24T13:22:52.796Z,101204.75
2022-11-24T13:25:21.434Z,101208.44
2022-11-24T13:27:52.839Z,101203.03
2022-11-24T13:30:34.484Z,101211.06
2022-11-24T13:33:16.916Z,101211.94
2022-11-24T13:36:01.626Z,101200.66
2022-11-24T13:38:42.022Z,101203.03
2022-11-24T13:41:27.569Z,101203.91
2022-11-24T13:44:13.510Z,101211.75
2022-11-24T13:47:05.769Z,101209.97
2022-11-24T13:49:41.213Z,101206.38
2022-11-24T13:52:35.757Z,101215.94
2022-11-24T13:55:21.427Z,101208.25
2022-11-24T13:57:54.003Z,101211.75
2022-11-24T14:00:33.888Z,101217.41
2022-11-24T14:03:06.239Z,101210.50
2022-11-24T14:05:41.055Z,101201.78
2022-11-24T14:08:16.621Z,101206.13
2022-11-24T14:10:43.211Z,101193.25
2022-11-24T14:13:16.945Z,101202.72
2022-11-24T14:15:43.511Z,101204.88
2022-11-24T14:18:20.844Z,101205.28
2022-11-24T14:20:47.463Z,101202.13
2022-11-24T14:23:14.100Z,101191.19
2022-11-24T14:25:40.669Z,101195.81
2022-11-24T14:28:27.618Z,101189.75
2022-11-24T14:31:20.762Z,101183.03
2022-11-24T14:33:47.471Z,101199.22
2022-11-24T14:36:15.607Z,101196.50
2022-11-24T14:38:43.053Z,101202.13
2022-11-24T14:41:26.191Z,101206.59
2022-11-24T14:44:07.258Z,101197.19
2022-11-24T14:46:36.285Z,101201.38
2022-11-24T14:49:03.439Z,101199.75
2022-11-24T14:51:35.822Z,101189.78
2022-11-24T14:54:05.685Z,101202.34
2022-11-24T14:56:35.389Z,101188.50
2022-11-24T14:59:03.114Z,101195.59
2022-11-24T15:01:31.433Z,101201.47
2022-11-24T15:07:23.749Z,101199.34
2022-11-24T15:09:53.582Z,101196.88
2022-11-24T15:12:30.667Z,101197.66
2022-11-24T15:15:06.203Z,101208.41
2022-11-24T15:17:33.595Z,101206.78
2022-11-24T15:20:10.689Z,101196.03
2022-11-24T15:22:42.634Z,101207.97
2022-11-24T15:25:30.530Z,101210.53
2022-11-24T15:27:57.393Z,101206.09
2022-11-24T15:30:24.333Z,101226.50
2022-11-24T15:32:58.741Z,101218.66
2022-11-24T15:35:26.506Z,101218.22
2022-11-24T15:37:52.990Z,101212.00
2022-11-24T15:40:19.619Z,101223.34
2022-11-24T15:42:51.332Z,101220.19
2022-11-24T15:45:18.673Z,101217.69
2022-11-24T15:47:45.177Z,101212.28
2022-11-24T15:50:12.608Z,101221.22
2022-11-24T15:52:39.950Z,101214.91
2022-11-24T15:55:07.477Z,101204.72
2022-11-24T15:57:34.215Z,101202.94
2022-11-24T16:00:00.732Z,101203.97
2022-11-24T16:02:27.232Z,101197.47
2022-11-24T16:04:53.875Z,101203.00
2022-11-24T16:07:20.309Z,101205.38
2022-11-24T16:09:46.825Z,101213.06
2022-11-24T16:12:13.262Z,101204.38
2022-11-24T16:14:39.823Z,101209.25
2022-11-24T16:17:06.444Z,101214.09
2022-11-24T16:19:36.193Z,101210.84
2022-11-24T16:22:07.854Z,101214.03
2022-11-24T16:24:34.511Z,101209.97
2022-11-24T16:27:01.204Z,101221.19
2022-11-24T16:29:27.658Z,101211.47
2022-11-24T16:31:54.441Z,101207.03
2022-11-24T16:34:21.027Z,101213.09
2022-11-24T16:36:47.457Z,101217.66
2022-11-24T16:39:13.820Z,101209.44
2022-11-24T16:41:40.519Z,101214.41
2022-11-24T16:44:07.080Z,101225.59
2022-11-24T16:46:33.717Z,101225.31
2022-11-24T16:49:01.182Z,101224.53
2022-11-24T16:51:31.528Z,101215.25
2022-11-24T16:54:02.330Z,101217.81
2022-11-24T16:56:29.808Z,101216.88
2022-11-24T16:59:01.839Z,101230.34
2022-11-24T17:01:29.884Z,101222.16
2022-11-24T17:03:56.498Z,101222.31
2022-11-24T17:06:23.490Z,101215.41
2022-11-24T17:08:49.957Z,101210.66
2022-11-24T17:11:19.124Z,101215.19
2022-11-24T17:13:47.435Z,101211.91
2022-11-24T17:16:16.693Z,101208.59
2022-11-24T17:18:43.844Z,101211.69
2022-11-24T17:21:13.780Z,101206.47
2022-11-24T17:23:40.383Z,101201.97
2022-11-24T17:26:10.498Z,101209.13
2022-11-24T17:28:37.633Z,101203.16
2022-11-24T17:31:19.761Z,101198.91
2022-11-24T17:33:46.262Z,101206.63
2022-11-24T17:36:12.829Z,101210.28
2022-11-24T17:38:39.307Z,101189.00
2022-11-24T17:41:05.899Z,101189.69
2022-11-24T17:43:32.899Z,101199.31
2022-11-24T17:46:01.945Z,101197.16
2022-11-24T17:48:29.257Z,101199.09
2022-11-24T17:51:07.844Z,101200.03
2022-11-24T17:53:37.557Z,101199.56
2022-11-24T17:56:05.357Z,101193.72
2022-11-24T17:58:38.339Z,101197.69
2022-11-24T18:01:08.073Z,101203.91
2022-11-24T18:03:35.165Z,101205.00
2022-11-24T18:06:08.938Z,101205.38
2022-11-24T18:08:41.415Z,101207.56
2022-11-24T18:11:31.761Z,101201.97
2022-11-24T18:14:02.062Z,101196.06
2022-11-24T18:16:32.507Z,101191.63
2022-11-24T18:19:08.758Z,101197.31
2022-11-24T18:21:36.641Z,101203.97
2022-11-24T18:24:03.479Z,101200.47
2022-11-24T18:26:30.003Z,101198.69
2022-11-24T18:28:56.485Z,101198.53
2022-11-24T18:31:23.226Z,101188.75
2022-11-24T18:33:49.785Z,101200.09
2022-11-24T18:36:18.940Z,101183.41
2022-11-24T18:38:45.511Z,101188.50
2022-11-24T18:41:13.621Z,101195.31
2022-11-24T18:43:40.978Z,101197.53
2022-11-24T18:46:11.480Z,101197.69
2022-11-24T18:48:38.009Z,101186.19
2022-11-24T18:51:05.015Z,101193.19
2022-11-24T18:53:31.771Z,101187.13
2022-11-24T18:56:08.693Z,101173.94
2022-11-24T18:58:35.932Z,101179.13
2022-11-24T19:01:10.208Z,101174.88
2022-11-24T19:03:42.308Z,101186.13
2022-11-24T19:06:15.588Z,101181.69
2022-11-24T19:08:42.097Z,101181.63
2022-11-24T19:11:19.501Z,101178.34
2022-11-24T19:13:47.605Z,101161.75
2022-11-24T19:16:15.064Z,101168.56
2022-11-24T19:18:41.711Z,101168.81
2022-11-24T19:21:08.350Z,101154.97
2022-11-24T19:23:34.970Z,101155.97
2022-11-24T19:26:05.979Z,101154.03
2022-11-24T19:28:32.642Z,101162.69
2022-11-24T19:31:03.493Z,101170.69
2022-11-24T19:33:30.728Z,101166.25
2022-11-24T19:36:10.470Z,101157.59
2022-11-24T19:38:38.079Z,101154.19
2022-11-24T19:44:09.962Z,101160.41
2022-11-24T19:46:39.969Z,101167.63
2022-11-24T19:49:10.460Z,101159.50
2022-11-24T19:51:43.702Z,101132.88
2022-11-24T19:54:15.182Z,101144.75
2022-11-24T19:56:42.984Z,101150.78
2022-11-24T19:59:15.293Z,101174.84
2022-11-24T20:01:46.705Z,101160.34
2022-11-24T20:04:15.553Z,101167.94
2022-11-24T20:06:50.221Z,101134.41
2022-11-24T20:09:20.055Z,101146.69
2022-11-24T20:11:53.903Z,101148.56
2022-11-24T20:14:30.837Z,101128.59
2022-11-24T20:17:12.572Z,101136.81
2022-11-24T20:19:42.941Z,101132.59
2022-11-24T20:22:13.694Z,101155.97
2022-11-24T20:24:45.884Z,101119.28
2022-11-24T20:27:20.763Z,101118.75
2022-11-24T20:30:01.290Z,101135.97
2022-11-24T20:32:36.974Z,101152.47
2022-11-24T20:35:04.172Z,101108.34
2022-11-24T20:37:32.694Z,101108.09
2022-11-24T20:40:02.243Z,101125.47
2022-11-24T20:42:36.751Z,101103.34
2022-11-24T20:45:04.363Z,101122.91
2022-11-24T20:47:31.363Z,101127.50
2022-11-24T20:49:58.204Z,101164.63
2022-11-24T20:52:33.215Z,101133.38
2022-11-24T20:55:09.349Z,101124.69
2022-11-24T20:57:39.332Z,101153.88
2022-11-24T21:00:11.966Z,101125.63
2022-11-24T21:02:45.154Z,101123.34
2022-11-24T21:05:15.031Z,101124.53
2022-11-24T21:07:42.073Z,101138.06
2022-11-24T21:10:10.924Z,101112.00
2022-11-24T21:12:37.867Z,101128.56
2022-11-24T21:15:08.328Z,101104.00
2022-11-24T21:17:37.623Z,101107.91
2022-11-24T21:20:06.415Z,101148.06
2022-11-24T21:22:33.071Z,101140.53
2022-11-24T21:25:01.910Z,101129.56
2022-11-24T21:27:32.012Z,101120.63
2022-11-24T21:30:02.040Z,101105.44
2022-11-24T21:32:32.420Z,101108.00
2022-11-24T21:35:04.616Z,101132.53
2022-11-24T21:37:45.042Z,101114.19
2022-11-24T21:40:15.103Z,101144.50
2022-11-24T21:42:47.609Z,101112.63
2022-11-24T21:45:20.966Z,101098.91
2022-11-24T21:47:47.873Z,101099.91
2022-11-24T21:50:19.012Z,101103.47
2022-11-24T21:52:50.495Z,101103.00
2022-11-24T21:55:19.827Z,101098.09
2022-11-24T21:57:52.678Z,101107.88
2022-11-24T22:00:20.275Z,101088.94
2022-11-24T22:02:58.560Z,101094.66
2022-11-24T22:05:29.094Z,101085.38
2022-11-24T22:07:59.678Z,101099.19
2022-11-24T22:10:28.226Z,101081.19
2022-11-24T22:13:03.719Z,101061.78
2022-11-24T22:15:31.998Z,101085.13
2022-11-24T22:18:00.079Z,101114.56
2022-11-24T22:20:34.029Z,101113.59
2022-11-24T22:23:02.382Z,101107.38
2022-11-24T22:25:29.082Z,101073.88
2022-11-24T22:27:59.779Z,101083.50
2022-11-24T22:30:42.872Z,101072.34
2022-11-24T22:33:09.645Z,101072.44
2022-11-24T22:35:38.418Z,101093.06
2022-11-24T22:38:08.813Z,101103.97
2022-11-24T22:40:36.810Z,101106.69
2022-11-24T22:43:03.742Z,101112.66
2022-11-24T22:45:30.373Z,101121.38
2022-11-24T22:47:56.937Z,101114.88
2022-11-24T22:50:23.491Z,101102.53
2022-11-24T22:52:54.090Z,101111.56
2022-11-24T22:55:20.811Z,101123.25
2022-11-24T22:57:48.458Z,101090.16
2022-11-24T23:00:21.187Z,101120.16
2022-11-24T23:02:48.012Z,101065.34
2022-11-24T23:05:20.480Z,101104.66
2022-11-24T23:07:47.524Z,101103.88
2022-11-24T23:10:14.121Z,101121.66
2022-11-24T23:12:41.026Z,101098.34
2022-11-24T23:15:09.845Z,101105.41
2022-11-24T23:17:36.980Z,101092.19
2022-11-24T23:20:04.102Z,101099.88
2022-11-24T23:22:31.447Z,101117.28
2022-11-24T23:24:58.684Z,101123.84
2022-11-24T23:27:25.517Z,101097.50
2022-11-24T23:29:52.618Z,101110.13
2022-11-24T23:32:28.299Z,101087.53
2022-11-24T23:34:55.270Z,101091.44
2022-11-24T23:37:34.301Z,101092.22
2022-11-24T23:40:14.675Z,101085.03
2022-11-24T23:42:42.775Z,101089.22
2022-11-24T23:45:11.365Z,101085.56
2022-11-24T23:47:39.487Z,101108.91
2022-11-24T23:50:09.076Z,101105.50
2022-11-24T23:52:39.053Z,101104.47
2022-11-24T23:55:09.089Z,101093.91
2022-11-24T23:57:36.072Z,101095.84
